Darstellungsparameter: Aktuell verwendete Einstellungen:
Skalierung der Graphiken ... ?
xyx+y,   Skalierungsfaktor:      Skalierung: Modus: x, Faktor: 1
Darstellungszeitraum ... ?
Vom - - bis: - -   Zeitraum: 27.03.2021 - 27.03.2021
Min/Max/Avg-Anzeige ... ?
Zeige MMA aktuell
Zeige MMA Monat
Zeige MMA alles
Zeige --A aktuell
Zeige --A Monat
Zeige --A alles
Keine MMA-Anzeige
MMA:
Average (ber die Originaldaten)
MMA-Basis: 27.03.2021 - 27.03.2021
Quicknavigation für Darstellung... ?
Tage:      1T, 2T, 3T, 5T -1T -2T -3T -5T +1T +2T +3T +5T
Wochen: 1W, 2W, 3W -1W -2W -3W +1W +2W +3W
Monate: 1M, 3M, 6M -1M -3M -6M +1M +3M +6M
Jahre:    1J, 3J, 5J, 10J -1J -3J -5J -10J +1J +3J +5J +10J
Nutze für die Darstellung ... ?
Originaldaten oder Mittelwerte auf ...
Stundenbasis Tagesbasis Wochenbasis
Monatsbasis Jahresbasis      Datenbasis: Original-Daten
Darstellen als:
Statistik (Auto) Statistik J:M      Darstellung:
Zur Graphik,    zurück zur Übersicht aller Sensoren.
 
Tabellarische Datenbersicht: ?
 
Sensor: Nr:Datum:Temp:Abs-Feuchte:Windchill:Wind:
Aussen-T/F 1 27-03-2021 00:00:00 8.1 C 6.66 g/m*3 8.1 C 0 km/h
2 27-03-2021 00:05:00 8.1 C 6.66 g/m*3 8.1 C 0 km/h
3 27-03-2021 00:10:00 8 C 6.61 g/m*3 8 C 0 km/h
4 27-03-2021 00:15:00 7.9 C 6.57 g/m*3 7.9 C 0 km/h
5 27-03-2021 00:20:00 7.9 C 6.65 g/m*3 7.9 C 0 km/h
6 27-03-2021 00:25:00 7.9 C 6.65 g/m*3 7.9 C 0 km/h
7 27-03-2021 00:30:00 8 C 6.61 g/m*3 7.06 C 6.4 km/h
8 27-03-2021 00:35:00 8.3 C 6.74 g/m*3 8.3 C 1.6 km/h
9 27-03-2021 00:40:00 8.7 C 6.83 g/m*3 8.7 C 0 km/h
10 27-03-2021 00:45:00 8.8 C 6.88 g/m*3 8.8 C 0 km/h
11 27-03-2021 00:50:00 9.1 C 7.01 g/m*3 9.1 C 3.2 km/h
12 27-03-2021 00:55:00 9.2 C 7.05 g/m*3 9.2 C 1.6 km/h
13 27-03-2021 01:00:00 9.5 C 7.19 g/m*3 8.09 C 9.7 km/h
14 27-03-2021 01:05:00 9.7 C 7.47 g/m*3 9.7 C 1.6 km/h
15 27-03-2021 01:10:00 9.7 C 7.38 g/m*3 9.7 C 3.2 km/h
16 27-03-2021 01:15:00 9.6 C 7.15 g/m*3 7.29 C 16.1 km/h
17 27-03-2021 01:20:00 9.6 C 7.15 g/m*3 8.91 C 6.4 km/h
18 27-03-2021 01:25:00 9.8 C 7.14 g/m*3 9.14 C 6.4 km/h
19 27-03-2021 01:30:00 9.9 C 7.19 g/m*3 9.25 C 6.4 km/h
20 27-03-2021 01:35:00 10.1 C 7.28 g/m*3 10.1 C 3.2 km/h
21 27-03-2021 01:40:00 10.2 C 7.23 g/m*3 9.22 C 8.1 km/h
22 27-03-2021 01:45:00 10.3 C 7.28 g/m*3 10.3 C 4.8 km/h
23 27-03-2021 01:50:00 10.3 C 7.18 g/m*3 8.78 C 11.3 km/h
24 27-03-2021 01:55:00 10.3 C 7.09 g/m*3 9.34 C 8.1 km/h
25 27-03-2021 02:00:00 10.3 C 7.18 g/m*3 10.3 C 3.2 km/h
Sensor: Nr:Datum:Temp:Abs-Feuchte:Windchill:Wind:
Aussen-T/F 26 27-03-2021 02:05:00 10.2 C 7.14 g/m*3 8.66 C 11.3 km/h
27 27-03-2021 02:10:00 10.2 C 7.14 g/m*3 10.2 C 4.8 km/h
28 27-03-2021 02:15:00 10.1 C 7.19 g/m*3 8.31 C 12.9 km/h
29 27-03-2021 02:20:00 10.2 C 7.23 g/m*3 8.43 C 12.9 km/h
30 27-03-2021 02:25:00 10.3 C 7.18 g/m*3 8.55 C 12.9 km/h
31 27-03-2021 02:30:00 10.3 C 7.18 g/m*3 8.78 C 11.3 km/h
32 27-03-2021 02:35:00 10.3 C 7.28 g/m*3 9.04 C 9.7 km/h
33 27-03-2021 02:40:00 10.3 C 7.28 g/m*3 8.55 C 12.9 km/h
34 27-03-2021 02:45:00 10.2 C 7.33 g/m*3 8.43 C 12.9 km/h
35 27-03-2021 02:50:00 10.2 C 7.23 g/m*3 7.7 C 19.3 km/h
36 27-03-2021 02:55:00 9.8 C 7.05 g/m*3 7.04 C 20.9 km/h
37 27-03-2021 03:00:00 9.5 C 6.74 g/m*3 6.66 C 20.9 km/h
38 27-03-2021 03:05:00 9.1 C 6.57 g/m*3 6.15 C 20.9 km/h
39 27-03-2021 03:10:00 8.8 C 6.61 g/m*3 6.72 C 12.9 km/h
40 27-03-2021 03:15:00 8.6 C 6.62 g/m*3 6.25 C 14.5 km/h
41 27-03-2021 03:20:00 8.3 C 6.57 g/m*3 5.48 C 17.7 km/h
42 27-03-2021 03:25:00 8.1 C 6.49 g/m*3 5.64 C 14.5 km/h
43 27-03-2021 03:30:00 8 C 6.45 g/m*3 5.52 C 14.5 km/h
44 27-03-2021 03:35:00 7.9 C 6.41 g/m*3 4.63 C 20.9 km/h
45 27-03-2021 03:40:00 7.8 C 6.2 g/m*3 4.51 C 20.9 km/h
46 27-03-2021 03:45:00 7.7 C 6.24 g/m*3 5.15 C 14.5 km/h
47 27-03-2021 03:50:00 7.7 C 6.24 g/m*3 5.15 C 14.5 km/h
48 27-03-2021 03:55:00 7.7 C 6.32 g/m*3 5.94 C 9.7 km/h
49 27-03-2021 04:00:00 7.6 C 6.2 g/m*3 4.25 C 20.9 km/h
50 27-03-2021 04:05:00 7.6 C 6.2 g/m*3 4.81 C 16.1 km/h
Sensor: Nr:Datum:Temp:Abs-Feuchte:Windchill:Wind:
Aussen-T/F 51 27-03-2021 04:10:00 7.6 C 6.2 g/m*3 5.82 C 9.7 km/h
52 27-03-2021 04:15:00 7.4 C 6.2 g/m*3 4.17 C 19.3 km/h
53 27-03-2021 04:20:00 7.4 C 6.12 g/m*3 5.02 C 12.9 km/h
54 27-03-2021 04:25:00 7.3 C 6.08 g/m*3 4.44 C 16.1 km/h
55 27-03-2021 04:30:00 7.3 C 6.08 g/m*3 4.9 C 12.9 km/h
56 27-03-2021 04:35:00 7.3 C 6.08 g/m*3 4.44 C 16.1 km/h
57 27-03-2021 04:40:00 7.3 C 6.08 g/m*3 4.23 C 17.7 km/h
58 27-03-2021 04:45:00 7.3 C 6.08 g/m*3 5.16 C 11.3 km/h
59 27-03-2021 04:50:00 7.2 C 6.04 g/m*3 5.04 C 11.3 km/h
60 27-03-2021 04:55:00 7.2 C 6.12 g/m*3 3.92 C 19.3 km/h
61 27-03-2021 05:00:00 7.1 C 6.01 g/m*3 4.65 C 12.9 km/h
62 27-03-2021 05:05:00 7 C 5.97 g/m*3 4.29 C 14.5 km/h
63 27-03-2021 05:10:00 7 C 5.97 g/m*3 3.49 C 20.9 km/h
64 27-03-2021 05:15:00 7 C 5.97 g/m*3 4.29 C 14.5 km/h
65 27-03-2021 05:20:00 7 C 5.89 g/m*3 3.86 C 17.7 km/h
66 27-03-2021 05:25:00 6.9 C 5.85 g/m*3 4.68 C 11.3 km/h
67 27-03-2021 05:30:00 6.8 C 5.81 g/m*3 5.22 C 8.1 km/h
68 27-03-2021 05:35:00 6.8 C 5.89 g/m*3 4.29 C 12.9 km/h
69 27-03-2021 05:40:00 6.7 C 5.85 g/m*3 3.92 C 14.5 km/h
70 27-03-2021 05:45:00 6.6 C 5.81 g/m*3 3.17 C 19.3 km/h
71 27-03-2021 05:50:00 6.4 C 5.66 g/m*3 2.91 C 19.3 km/h
72 27-03-2021 05:55:00 6.3 C 5.63 g/m*3 3.68 C 12.9 km/h
73 27-03-2021 06:00:00 6.2 C 5.59 g/m*3 4.15 C 9.7 km/h
74 27-03-2021 06:05:00 6 C 5.59 g/m*3 3.31 C 12.9 km/h
75 27-03-2021 06:10:00 5.9 C 5.55 g/m*3 3.48 C 11.3 km/h
Sensor: Nr:Datum:Temp:Abs-Feuchte:Windchill:Wind:
Aussen-T/F 76 27-03-2021 06:15:00 5.9 C 5.55 g/m*3 2.29 C 19.3 km/h
77 27-03-2021 06:20:00 6 C 5.66 g/m*3 1.89 C 24.1 km/h
78 27-03-2021 06:25:00 6 C 5.66 g/m*3 2.61 C 17.7 km/h
79 27-03-2021 06:30:00 5.9 C 5.7 g/m*3 1.61 C 25.7 km/h
80 27-03-2021 06:35:00 5.9 C 5.7 g/m*3 4.17 C 8.1 km/h
81 27-03-2021 06:40:00 5.8 C 5.66 g/m*3 3.68 C 9.7 km/h
82 27-03-2021 06:45:00 5.8 C 5.73 g/m*3 3.36 C 11.3 km/h
83 27-03-2021 06:50:00 5.7 C 5.69 g/m*3 2.45 C 16.1 km/h
84 27-03-2021 06:55:00 5.7 C 5.69 g/m*3 3.56 C 9.7 km/h
85 27-03-2021 07:00:00 5.7 C 5.69 g/m*3 2.69 C 14.5 km/h
86 27-03-2021 07:05:00 5.8 C 5.73 g/m*3 5.8 C 3.2 km/h
87 27-03-2021 07:10:00 5.8 C 5.73 g/m*3 5.8 C 1.6 km/h
88 27-03-2021 07:15:00 5.9 C 5.77 g/m*3 4.63 C 6.4 km/h
89 27-03-2021 07:20:00 6 C 5.81 g/m*3 6 C 4.8 km/h
90 27-03-2021 07:25:00 5.9 C 5.7 g/m*3 3.8 C 9.7 km/h
91 27-03-2021 07:30:00 6.1 C 5.77 g/m*3 3.43 C 12.9 km/h
92 27-03-2021 07:35:00 6.2 C 5.81 g/m*3 2.86 C 17.7 km/h
93 27-03-2021 07:40:00 6.2 C 5.74 g/m*3 2.86 C 17.7 km/h
94 27-03-2021 07:45:00 6.3 C 5.85 g/m*3 4.64 C 8.1 km/h
95 27-03-2021 07:50:00 6.4 C 5.81 g/m*3 3.8 C 12.9 km/h
96 27-03-2021 07:55:00 6.4 C 5.81 g/m*3 3.32 C 16.1 km/h
97 27-03-2021 08:00:00 6.6 C 5.89 g/m*3 3.79 C 14.5 km/h
98 27-03-2021 08:05:00 6.6 C 5.89 g/m*3 4.04 C 12.9 km/h
99 27-03-2021 08:10:00 6.6 C 5.89 g/m*3 3.17 C 19.3 km/h
100 27-03-2021 08:15:00 6.6 C 5.81 g/m*3 2.82 C 22.5 km/h
Sensor: Nr:Datum:Temp:Abs-Feuchte:Windchill:Wind:
Aussen-T/F 101 27-03-2021 08:20:00 6.6 C 5.89 g/m*3 2.82 C 22.5 km/h
102 27-03-2021 08:25:00 6.8 C 5.89 g/m*3 2.76 C 25.7 km/h
103 27-03-2021 08:30:00 7 C 5.89 g/m*3 2.74 C 29 km/h
104 27-03-2021 08:35:00 7.2 C 5.89 g/m*3 3 C 29 km/h
105 27-03-2021 08:40:00 7.3 C 5.93 g/m*3 3.01 C 30.6 km/h
106 27-03-2021 08:45:00 7.4 C 5.96 g/m*3 3.68 C 24.1 km/h
107 27-03-2021 08:50:00 7.4 C 5.96 g/m*3 3.68 C 24.1 km/h
108 27-03-2021 08:55:00 7.4 C 5.96 g/m*3 4.17 C 19.3 km/h
109 27-03-2021 09:00:00 7.2 C 6.12 g/m*3 3.28 C 25.7 km/h
110 27-03-2021 09:05:00 7.1 C 6.24 g/m*3 4.92 C 11.3 km/h
111 27-03-2021 09:10:00 6.9 C 6.16 g/m*3 3.94 C 16.1 km/h
112 27-03-2021 09:15:00 7.2 C 6.2 g/m*3 3.92 C 19.3 km/h
113 27-03-2021 09:20:00 7.3 C 6.16 g/m*3 4.66 C 14.5 km/h
114 27-03-2021 09:25:00 7.6 C 6.2 g/m*3 4.81 C 16.1 km/h
115 27-03-2021 09:30:00 7.7 C 6.16 g/m*3 4.55 C 19.3 km/h
116 27-03-2021 09:35:00 7.9 C 6.24 g/m*3 5.39 C 14.5 km/h
117 27-03-2021 09:40:00 8.1 C 6.32 g/m*3 5.05 C 19.3 km/h
118 27-03-2021 09:45:00 8.1 C 6.24 g/m*3 5.23 C 17.7 km/h
119 27-03-2021 09:50:00 8.1 C 6.07 g/m*3 4.44 C 25.7 km/h
120 27-03-2021 09:55:00 8.2 C 6.2 g/m*3 5.18 C 19.3 km/h
121 27-03-2021 10:00:00 8.3 C 6.15 g/m*3 5.14 C 20.9 km/h
122 27-03-2021 10:05:00 8.4 C 6.19 g/m*3 5.43 C 19.3 km/h
123 27-03-2021 10:10:00 8.5 C 6.15 g/m*3 5.39 C 20.9 km/h
124 27-03-2021 10:15:00 8.4 C 6.11 g/m*3 5.43 C 19.3 km/h
125 27-03-2021 10:20:00 8.2 C 6.03 g/m*3 5.36 C 17.7 km/h
Sensor: Nr:Datum:Temp:Abs-Feuchte:Windchill:Wind:
Aussen-T/F 126 27-03-2021 10:25:00 7.9 C 6 g/m*3 4.63 C 20.9 km/h
127 27-03-2021 10:30:00 7.6 C 6.04 g/m*3 3.52 C 29 km/h
128 27-03-2021 10:35:00 6.3 C 5.85 g/m*3 3.2 C 16.1 km/h
129 27-03-2021 10:40:00 5.3 C 5.75 g/m*3 2.46 C 12.9 km/h
130 27-03-2021 10:45:00 5.1 C 5.88 g/m*3 2.51 C 11.3 km/h
131 27-03-2021 10:50:00 5.1 C 6.02 g/m*3 3.23 C 8.1 km/h
132 27-03-2021 10:55:00 5.2 C 6.13 g/m*3 2.63 C 11.3 km/h
133 27-03-2021 11:00:00 5.3 C 6.17 g/m*3 3.08 C 9.7 km/h
134 27-03-2021 11:05:00 5.5 C 6.25 g/m*3 2.44 C 14.5 km/h
135 27-03-2021 11:10:00 5.7 C 6.33 g/m*3 3.23 C 11.3 km/h
136 27-03-2021 11:15:00 5.9 C 6.35 g/m*3 3.8 C 9.7 km/h
137 27-03-2021 11:20:00 6.2 C 6.47 g/m*3 4.15 C 9.7 km/h
138 27-03-2021 11:25:00 6.4 C 6.48 g/m*3 4.08 C 11.3 km/h
139 27-03-2021 11:30:00 6.8 C 6.42 g/m*3 3.42 C 19.3 km/h
140 27-03-2021 11:35:00 7.1 C 6.47 g/m*3 4.65 C 12.9 km/h
141 27-03-2021 11:40:00 7.4 C 6.6 g/m*3 4.78 C 14.5 km/h
142 27-03-2021 11:45:00 7.6 C 6.28 g/m*3 4.61 C 17.7 km/h
143 27-03-2021 11:50:00 7.7 C 6.16 g/m*3 4.07 C 24.1 km/h
144 27-03-2021 11:55:00 7.7 C 6.08 g/m*3 5.15 C 14.5 km/h
145 27-03-2021 12:00:00 7.4 C 6.28 g/m*3 3.26 C 29 km/h
146 27-03-2021 12:05:00 7.1 C 6.4 g/m*3 4.92 C 11.3 km/h
147 27-03-2021 12:10:00 6.8 C 6.5 g/m*3 4.04 C 14.5 km/h
148 27-03-2021 12:15:00 6.9 C 6.77 g/m*3 4.68 C 11.3 km/h
149 27-03-2021 12:20:00 7.4 C 7 g/m*3 4.78 C 14.5 km/h
150 27-03-2021 12:25:00 7.7 C 6.97 g/m*3 4.93 C 16.1 km/h
Sensor: Nr:Datum:Temp:Abs-Feuchte:Windchill:Wind:
Aussen-T/F 151 27-03-2021 12:30:00 8.2 C 7.03 g/m*3 5.18 C 19.3 km/h
152 27-03-2021 12:35:00 8.3 C 6.74 g/m*3 4.84 C 24.1 km/h
153 27-03-2021 12:40:00 8.4 C 6.79 g/m*3 5.61 C 17.7 km/h
154 27-03-2021 12:45:00 8.5 C 6.66 g/m*3 5.56 C 19.3 km/h
155 27-03-2021 12:50:00 8.5 C 6.66 g/m*3 5.73 C 17.7 km/h
156 27-03-2021 12:55:00 8.6 C 6.7 g/m*3 6.73 C 11.3 km/h
157 27-03-2021 13:00:00 8.7 C 6.57 g/m*3 5.65 C 20.9 km/h
158 27-03-2021 13:05:00 8.6 C 6.62 g/m*3 5.68 C 19.3 km/h
159 27-03-2021 13:10:00 8.1 C 6.57 g/m*3 4.44 C 25.7 km/h
160 27-03-2021 13:15:00 7.5 C 6.48 g/m*3 4.48 C 17.7 km/h
161 27-03-2021 13:20:00 7.3 C 6.64 g/m*3 4.66 C 14.5 km/h
162 27-03-2021 13:25:00 7.2 C 6.59 g/m*3 3.43 C 24.1 km/h
163 27-03-2021 13:30:00 7.3 C 6.72 g/m*3 4.9 C 12.9 km/h
164 27-03-2021 13:35:00 7.5 C 6.8 g/m*3 4.68 C 16.1 km/h
165 27-03-2021 13:40:00 7.6 C 6.53 g/m*3 3.8 C 25.7 km/h
166 27-03-2021 13:45:00 7.3 C 6.32 g/m*3 3.26 C 27.4 km/h
167 27-03-2021 13:50:00 7 C 6.35 g/m*3 3.33 C 22.5 km/h
168 27-03-2021 13:55:00 6.9 C 6.16 g/m*3 3.04 C 24.1 km/h
169 27-03-2021 14:00:00 6.8 C 6.04 g/m*3 2.91 C 24.1 km/h
170 27-03-2021 14:05:00 6.8 C 6.12 g/m*3 3.61 C 17.7 km/h
171 27-03-2021 14:10:00 6.9 C 6.16 g/m*3 3.54 C 19.3 km/h
172 27-03-2021 14:15:00 7.1 C 6.24 g/m*3 4.65 C 12.9 km/h
173 27-03-2021 14:20:00 7.3 C 6.16 g/m*3 3.87 C 20.9 km/h
174 27-03-2021 14:25:00 7.7 C 6.24 g/m*3 4.93 C 16.1 km/h
175 27-03-2021 14:30:00 8 C 6.28 g/m*3 5.75 C 12.9 km/h
Sensor: Nr:Datum:Temp:Abs-Feuchte:Windchill:Wind:
Aussen-T/F 176 27-03-2021 14:35:00 8.2 C 6.2 g/m*3 5.76 C 14.5 km/h
177 27-03-2021 14:40:00 8.3 C 6.15 g/m*3 5.68 C 16.1 km/h
178 27-03-2021 14:45:00 8.5 C 5.98 g/m*3 5.56 C 19.3 km/h
179 27-03-2021 14:50:00 8.6 C 5.93 g/m*3 5.37 C 22.5 km/h
180 27-03-2021 14:55:00 8.7 C 5.79 g/m*3 5.81 C 19.3 km/h
181 27-03-2021 15:00:00 8.7 C 5.79 g/m*3 5.49 C 22.5 km/h
182 27-03-2021 15:05:00 8.6 C 5.76 g/m*3 5.37 C 22.5 km/h
183 27-03-2021 15:10:00 8.7 C 5.79 g/m*3 6.17 C 16.1 km/h
184 27-03-2021 15:15:00 8.8 C 5.74 g/m*3 5.93 C 19.3 km/h
185 27-03-2021 15:20:00 9 C 5.64 g/m*3 5.87 C 22.5 km/h
186 27-03-2021 15:25:00 9.1 C 5.5 g/m*3 5.73 C 25.7 km/h
187 27-03-2021 15:30:00 9.1 C 5.59 g/m*3 7.33 C 11.3 km/h
188 27-03-2021 15:35:00 9.2 C 5.54 g/m*3 7.21 C 12.9 km/h
189 27-03-2021 15:40:00 9.2 C 5.54 g/m*3 6.79 C 16.1 km/h
190 27-03-2021 15:45:00 9.2 C 5.63 g/m*3 7.21 C 12.9 km/h
191 27-03-2021 15:50:00 9.3 C 5.39 g/m*3 6.73 C 17.7 km/h
192 27-03-2021 15:55:00 9.4 C 5.61 g/m*3 7.04 C 16.1 km/h
193 27-03-2021 16:00:00 9.5 C 5.46 g/m*3 7.36 C 14.5 km/h
194 27-03-2021 16:05:00 9.4 C 5.61 g/m*3 6.86 C 17.7 km/h
195 27-03-2021 16:10:00 9.4 C 5.61 g/m*3 7.04 C 16.1 km/h
196 27-03-2021 16:15:00 9.4 C 5.79 g/m*3 7.24 C 14.5 km/h
197 27-03-2021 16:20:00 9.4 C 5.88 g/m*3 7.46 C 12.9 km/h
198 27-03-2021 16:25:00 9.4 C 5.97 g/m*3 7.04 C 16.1 km/h
199 27-03-2021 16:30:00 9.3 C 6.02 g/m*3 6.73 C 17.7 km/h
200 27-03-2021 16:35:00 9.3 C 6.11 g/m*3 6.92 C 16.1 km/h
Sensor: Nr:Datum:Temp:Abs-Feuchte:Windchill:Wind:
Aussen-T/F 201 27-03-2021 16:40:00 9.4 C 6.06 g/m*3 7.04 C 16.1 km/h
202 27-03-2021 16:45:00 9.6 C 6.14 g/m*3 6.64 C 22.5 km/h
203 27-03-2021 16:50:00 9.9 C 6.44 g/m*3 8.06 C 12.9 km/h
204 27-03-2021 16:55:00 10.2 C 6.47 g/m*3 8.03 C 16.1 km/h
205 27-03-2021 17:00:00 10.4 C 6.55 g/m*3 8.9 C 11.3 km/h
206 27-03-2021 17:05:00 10.4 C 6.46 g/m*3 8.67 C 12.9 km/h
207 27-03-2021 17:10:00 10.3 C 6.51 g/m*3 8.55 C 12.9 km/h
208 27-03-2021 17:15:00 10.4 C 6.55 g/m*3 8.67 C 12.9 km/h
209 27-03-2021 17:20:00 10.3 C 6.51 g/m*3 7.98 C 17.7 km/h
210 27-03-2021 17:25:00 10.2 C 6.47 g/m*3 8.43 C 12.9 km/h
211 27-03-2021 17:30:00 10.3 C 6.51 g/m*3 9.04 C 9.7 km/h
212 27-03-2021 17:35:00 10.2 C 6.38 g/m*3 8.43 C 12.9 km/h
213 27-03-2021 17:40:00 9.7 C 6.27 g/m*3 7.82 C 12.9 km/h
214 27-03-2021 17:45:00 9.1 C 6.12 g/m*3 6.87 C 14.5 km/h
215 27-03-2021 17:50:00 8.7 C 6.05 g/m*3 6.6 C 12.9 km/h
216 27-03-2021 17:55:00 8.4 C 6.11 g/m*3 5.43 C 19.3 km/h
217 27-03-2021 18:00:00 8.3 C 6.32 g/m*3 5.68 C 16.1 km/h
218 27-03-2021 18:05:00 7.9 C 6.16 g/m*3 4.8 C 19.3 km/h
219 27-03-2021 18:10:00 7.3 C 5.77 g/m*3 3.87 C 20.9 km/h
220 27-03-2021 18:15:00 7.1 C 6.16 g/m*3 4.65 C 12.9 km/h
221 27-03-2021 18:20:00 6.8 C 6.27 g/m*3 5.22 C 8.1 km/h
222 27-03-2021 18:25:00 6.6 C 6.27 g/m*3 4.99 C 8.1 km/h
223 27-03-2021 18:30:00 6.3 C 6.14 g/m*3 4.27 C 9.7 km/h
224 27-03-2021 18:35:00 6.1 C 6.14 g/m*3 6.1 C 4.8 km/h
225 27-03-2021 18:40:00 5.9 C 6.13 g/m*3 5.9 C 4.8 km/h
Sensor: Nr:Datum:Temp:Abs-Feuchte:Windchill:Wind:
Aussen-T/F 226 27-03-2021 18:45:00 5.7 C 6.12 g/m*3 3.93 C 8.1 km/h
227 27-03-2021 18:50:00 5.6 C 6.15 g/m*3 5.6 C 4.8 km/h
228 27-03-2021 18:55:00 5.4 C 6.07 g/m*3 5.4 C 3.2 km/h
229 27-03-2021 19:00:00 5.3 C 6.1 g/m*3 5.3 C 3.2 km/h
230 27-03-2021 19:05:00 5.2 C 6.06 g/m*3 5.2 C 4.8 km/h
231 27-03-2021 19:10:00 5.1 C 6.02 g/m*3 5.1 C 3.2 km/h
232 27-03-2021 19:15:00 4.9 C 6.01 g/m*3 2.27 C 11.3 km/h
233 27-03-2021 19:20:00 4.9 C 6.01 g/m*3 2.99 C 8.1 km/h
234 27-03-2021 19:25:00 4.9 C 6.01 g/m*3 2.99 C 8.1 km/h
235 27-03-2021 19:30:00 5 C 6.05 g/m*3 3.11 C 8.1 km/h
236 27-03-2021 19:35:00 5.1 C 6.09 g/m*3 3.23 C 8.1 km/h
237 27-03-2021 19:40:00 5.1 C 6.09 g/m*3 2.51 C 11.3 km/h
238 27-03-2021 19:45:00 5.1 C 6.02 g/m*3 3.71 C 6.4 km/h
239 27-03-2021 19:50:00 5.2 C 6.06 g/m*3 3.34 C 8.1 km/h
240 27-03-2021 19:55:00 5.2 C 6.06 g/m*3 3.34 C 8.1 km/h
241 27-03-2021 20:00:00 5.2 C 6.06 g/m*3 3.82 C 6.4 km/h
242 27-03-2021 20:05:00 5.1 C 6.02 g/m*3 5.1 C 4.8 km/h
243 27-03-2021 20:10:00 5 C 5.91 g/m*3 3.59 C 6.4 km/h
244 27-03-2021 20:15:00 4.9 C 5.94 g/m*3 4.9 C 4.8 km/h
245 27-03-2021 20:20:00 4.8 C 5.9 g/m*3 3.36 C 6.4 km/h
246 27-03-2021 20:25:00 4.8 C 5.9 g/m*3 4.8 C 3.2 km/h
247 27-03-2021 20:30:00 4.7 C 5.93 g/m*3 4.7 C 3.2 km/h
248 27-03-2021 20:35:00 4.8 C 5.97 g/m*3 4.8 C 4.8 km/h
249 27-03-2021 20:40:00 4.8 C 5.97 g/m*3 4.8 C 4.8 km/h
250 27-03-2021 20:45:00 4.9 C 6.01 g/m*3 4.9 C 4.8 km/h
Sensor: Nr:Datum:Temp:Abs-Feuchte:Windchill:Wind:
Aussen-T/F 251 27-03-2021 20:50:00 5.1 C 6.09 g/m*3 5.1 C 3.2 km/h
252 27-03-2021 20:55:00 5.1 C 6.09 g/m*3 5.1 C 3.2 km/h
253 27-03-2021 21:00:00 5.1 C 6.09 g/m*3 5.1 C 4.8 km/h
254 27-03-2021 21:05:00 5.2 C 6.13 g/m*3 5.2 C 3.2 km/h
255 27-03-2021 21:10:00 5.2 C 6.13 g/m*3 5.2 C 1.6 km/h
256 27-03-2021 21:15:00 5.3 C 6.17 g/m*3 5.3 C 4.8 km/h
257 27-03-2021 21:20:00 5.3 C 6.17 g/m*3 5.3 C 1.6 km/h
258 27-03-2021 21:25:00 5.3 C 6.17 g/m*3 5.3 C 1.6 km/h
259 27-03-2021 21:30:00 5.2 C 6.06 g/m*3 5.2 C 3.2 km/h
260 27-03-2021 21:35:00 5.2 C 6.06 g/m*3 5.2 C 4.8 km/h
261 27-03-2021 21:40:00 5.1 C 6.02 g/m*3 5.1 C 1.6 km/h
262 27-03-2021 21:45:00 5 C 5.98 g/m*3 5 C 3.2 km/h
263 27-03-2021 21:50:00 5 C 5.98 g/m*3 5 C 3.2 km/h
264 27-03-2021 21:55:00 4.9 C 5.94 g/m*3 4.9 C 0 km/h
265 27-03-2021 22:00:00 4.8 C 5.9 g/m*3 4.8 C 3.2 km/h
266 27-03-2021 22:05:00 4.8 C 5.9 g/m*3 4.8 C 4.8 km/h
267 27-03-2021 22:10:00 4.7 C 5.86 g/m*3 4.7 C 3.2 km/h
268 27-03-2021 22:15:00 4.7 C 5.93 g/m*3 4.7 C 3.2 km/h
269 27-03-2021 22:20:00 4.6 C 5.89 g/m*3 4.6 C 4.8 km/h
270 27-03-2021 22:25:00 4.6 C 5.89 g/m*3 4.6 C 4.8 km/h
271 27-03-2021 22:30:00 4.5 C 5.85 g/m*3 4.5 C 4.8 km/h
272 27-03-2021 22:35:00 4.4 C 5.81 g/m*3 2.9 C 6.4 km/h
273 27-03-2021 22:40:00 4.4 C 5.81 g/m*3 4.4 C 4.8 km/h
274 27-03-2021 22:45:00 4.3 C 5.77 g/m*3 4.3 C 0 km/h
275 27-03-2021 22:50:00 4.3 C 5.77 g/m*3 1.55 C 11.3 km/h
Sensor: Nr:Datum:Temp:Abs-Feuchte:Windchill:Wind:
Aussen-T/F 276 27-03-2021 22:55:00 4.3 C 5.77 g/m*3 4.3 C 4.8 km/h
277 27-03-2021 23:00:00 4.2 C 5.73 g/m*3 4.2 C 1.6 km/h
278 27-03-2021 23:05:00 4.2 C 5.73 g/m*3 4.2 C 1.6 km/h
279 27-03-2021 23:10:00 4.1 C 5.7 g/m*3 4.1 C 3.2 km/h
280 27-03-2021 23:15:00 4.1 C 5.7 g/m*3 4.1 C 0 km/h
281 27-03-2021 23:20:00 4 C 5.66 g/m*3 4 C 1.6 km/h
282 27-03-2021 23:25:00 3.9 C 5.68 g/m*3 3.9 C 3.2 km/h
283 27-03-2021 23:30:00 3.9 C 5.68 g/m*3 3.9 C 0 km/h
284 27-03-2021 23:35:00 3.9 C 5.68 g/m*3 3.9 C 3.2 km/h
285 27-03-2021 23:40:00 3.9 C 5.75 g/m*3 3.9 C 1.6 km/h
286 27-03-2021 23:45:00 4 C 5.79 g/m*3 4 C 1.6 km/h
287 27-03-2021 23:50:00 4.1 C 5.82 g/m*3 4.1 C 3.2 km/h
288 27-03-2021 23:55:00 4.1 C 5.82 g/m*3 4.1 C 4.8 km/h

Legende:
   Min
   Max


Maximal/Minimal-Werte vom 27.03.2021 - 27.03.2021

Sensor Min Max Avg
Temp
(Aussen-T/F)
3.9 °C
27-03-2021  23:25:00
10.4 °C
27-03-2021  17:00:00
7.21 °C
Abs-Feuchte
(Aussen-T/F)
5.39 g/m*3
27-03-2021  15:50:00
7.47 g/m*3
27-03-2021  01:05:00
6.17 g/m*3
Windchill
(Aussen-T/F)
1.55 C
27-03-2021  22:50:00
10.3 C
27-03-2021  01:45:00
5.22 C

Die Daten stammen von einer Davis Vantage Pro 2 Wetter-Station und werden unter Linux mit der Software wview2wettercgi und aufbereitet. Alle Angaben erfolgen ohne Gewähr für ihre Vollständigkeit oder Richtigkeit.
Kontakt: Rainer Krienke krienke@uni-koblenz.de . Meine Webseiten an der Uni Koblenz oder privat.
Version: $Revision: 0.78 $